createdAt,value
2022-09-17T00:02:19.676Z,46.90
2022-09-17T00:04:53.509Z,47.20
2022-09-17T00:07:27.157Z,47.20
2022-09-17T00:10:00.761Z,47.10
2022-09-17T00:12:35.781Z,47.20
2022-09-17T00:15:09.959Z,46.90
2022-09-17T00:17:44.043Z,47.60
2022-09-17T00:20:18.305Z,46.90
2022-09-17T00:22:51.859Z,47.30
2022-09-17T00:25:25.441Z,47.60
2022-09-17T00:28:00.444Z,47.70
2022-09-17T00:30:34.207Z,47.80
2022-09-17T00:33:07.949Z,47.80
2022-09-17T00:35:41.765Z,47.80
2022-09-17T00:38:15.273Z,47.90
2022-09-17T00:40:48.858Z,48.00
2022-09-17T00:43:35.913Z,48.00
2022-09-17T00:46:13.676Z,48.00
2022-09-17T00:48:47.518Z,48.10
2022-09-17T00:51:22.474Z,48.10
2022-09-17T00:53:56.700Z,48.10
2022-09-17T00:56:31.282Z,48.20
2022-09-17T00:59:06.759Z,48.20
2022-09-17T01:01:40.363Z,48.30
2022-09-17T01:04:17.109Z,48.30
2022-09-17T01:06:56.853Z,48.30
2022-09-17T01:09:36.244Z,48.30
2022-09-17T01:12:17.483Z,48.30
2022-09-17T01:14:58.789Z,48.40
2022-09-17T01:17:37.462Z,48.40
2022-09-17T01:20:31.609Z,48.40
2022-09-17T01:23:20.177Z,48.50
2022-09-17T01:25:59.850Z,48.60
2022-09-17T01:28:42.999Z,48.60
2022-09-17T01:31:31.308Z,48.60
2022-09-17T01:34:11.308Z,48.70
2022-09-17T01:36:51.323Z,48.90
2022-09-17T01:39:30.159Z,48.90
2022-09-17T01:42:08.971Z,49.00
2022-09-17T01:44:46.241Z,49.00
2022-09-17T01:47:22.069Z,49.00
2022-09-17T01:50:01.430Z,49.10
2022-09-17T01:52:37.455Z,49.10
2022-09-17T01:55:12.357Z,49.70
2022-09-17T01:57:48.412Z,49.20
2022-09-17T02:00:22.409Z,49.20
2022-09-17T02:02:59.397Z,49.20
2022-09-17T02:05:37.208Z,49.30
2022-09-17T02:08:12.882Z,49.20
2022-09-17T02:10:49.383Z,49.20
2022-09-17T02:13:24.437Z,49.20
2022-09-17T02:16:01.460Z,49.30
2022-09-17T02:18:38.111Z,49.40
2022-09-17T02:21:15.877Z,49.50
2022-09-17T02:23:54.230Z,49.60
2022-09-17T02:26:29.117Z,49.80
2022-09-17T02:29:07.559Z,49.70
2022-09-17T02:31:42.670Z,49.80
2022-09-17T02:34:16.324Z,49.80
2022-09-17T02:36:51.274Z,49.80
2022-09-17T02:39:24.754Z,49.90
2022-09-17T02:42:05.968Z,49.90
2022-09-17T02:44:46.671Z,49.80
2022-09-17T02:47:30.410Z,49.90
2022-09-17T02:50:15.009Z,49.90
2022-09-17T02:53:07.984Z,49.90
2022-09-17T02:55:43.511Z,50.00
2022-09-17T02:58:22.723Z,49.90
2022-09-17T03:00:57.168Z,50.10
2022-09-17T03:03:33.212Z,50.20
2022-09-17T03:06:07.456Z,50.20
2022-09-17T03:08:43.293Z,50.30
2022-09-17T03:11:16.862Z,50.30
2022-09-17T03:13:50.617Z,50.40
2022-09-17T03:16:24.275Z,50.30
2022-09-17T03:18:57.912Z,50.40
2022-09-17T03:21:31.466Z,50.30
2022-09-17T03:24:06.588Z,50.30
2022-09-17T03:26:40.377Z,50.30
2022-09-17T03:29:13.942Z,50.30
2022-09-17T03:31:47.786Z,50.30
2022-09-17T03:34:21.461Z,50.20
2022-09-17T03:36:55.042Z,50.20
2022-09-17T03:39:30.053Z,50.30
2022-09-17T03:42:03.661Z,50.20
2022-09-17T03:44:37.188Z,50.30
2022-09-17T03:47:12.591Z,50.30
2022-09-17T03:49:46.104Z,50.40
2022-09-17T03:52:19.697Z,50.40
2022-09-17T03:54:54.607Z,50.50
2022-09-17T03:57:28.190Z,50.40
2022-09-17T04:00:01.790Z,50.50
2022-09-17T04:02:45.233Z,50.50
2022-09-17T04:05:18.770Z,50.50
2022-09-17T04:07:52.328Z,50.40
2022-09-17T04:10:27.252Z,50.40
2022-09-17T04:13:00.783Z,50.40
2022-09-17T04:15:34.266Z,50.40
2022-09-17T04:18:07.814Z,50.40
2022-09-17T04:20:41.542Z,50.40
2022-09-17T04:23:15.077Z,50.40
2022-09-17T04:25:50.032Z,50.40
2022-09-17T04:28:24.006Z,50.40
2022-09-17T04:30:57.804Z,50.50
2022-09-17T04:33:31.488Z,51.10
2022-09-17T04:36:05.202Z,50.50
2022-09-17T04:38:38.830Z,50.60
2022-09-17T04:41:13.854Z,50.60
2022-09-17T04:43:47.587Z,50.50
2022-09-17T04:46:21.214Z,50.50
2022-09-17T04:48:54.856Z,50.40
2022-09-17T04:51:28.459Z,50.50
2022-09-17T04:54:02.008Z,50.50
2022-09-17T04:56:37.024Z,50.50
2022-09-17T04:59:10.600Z,50.60
2022-09-17T05:01:44.568Z,50.60
2022-09-17T05:04:18.163Z,50.80
2022-09-17T05:06:51.734Z,50.80
2022-09-17T05:09:25.392Z,51.50
2022-09-17T05:12:00.356Z,50.90
2022-09-17T05:14:33.914Z,50.90
2022-09-17T05:17:07.474Z,50.90
2022-09-17T05:19:41.173Z,50.90
2022-09-17T05:22:18.363Z,50.70
2022-09-17T05:24:54.334Z,50.70
2022-09-17T05:27:29.230Z,50.80
2022-09-17T05:30:02.787Z,50.80
2022-09-17T05:32:36.832Z,50.80
2022-09-17T05:35:11.343Z,50.80
2022-09-17T05:37:44.827Z,50.80
2022-09-17T05:40:18.472Z,50.80
2022-09-17T05:42:53.419Z,51.00
2022-09-17T05:45:27.174Z,51.30
2022-09-17T05:48:01.965Z,51.30
2022-09-17T05:50:35.611Z,51.30
2022-09-17T05:53:11.721Z,51.30
2022-09-17T05:55:45.454Z,51.40
2022-09-17T05:58:20.993Z,51.60
2022-09-17T06:00:55.254Z,51.70
2022-09-17T06:03:28.767Z,51.50
2022-09-17T06:06:02.329Z,51.40
2022-09-17T06:08:36.857Z,51.10
2022-09-17T06:11:11.348Z,51.60
2022-09-17T06:13:46.388Z,50.90
2022-09-17T06:16:19.908Z,50.50
2022-09-17T06:18:54.061Z,50.30
2022-09-17T06:21:27.711Z,50.30
2022-09-17T06:24:01.981Z,50.30
2022-09-17T06:26:35.537Z,50.20
2022-09-17T06:29:10.430Z,50.10
2022-09-17T06:31:45.082Z,50.00
2022-09-17T06:34:18.995Z,49.90
2022-09-17T06:36:52.801Z,49.60
2022-09-17T06:39:26.709Z,49.50
2022-09-17T06:42:00.470Z,49.40
2022-09-17T06:44:36.554Z,49.40
2022-09-17T06:47:10.107Z,49.30
2022-09-17T06:49:43.594Z,48.80
2022-09-17T06:52:17.139Z,49.00
2022-09-17T06:54:50.622Z,48.70
2022-09-17T06:57:24.288Z,48.70
2022-09-17T06:59:59.384Z,48.90
2022-09-17T07:02:32.983Z,48.80
2022-09-17T07:05:07.164Z,48.90
2022-09-17T07:07:41.405Z,49.00
2022-09-17T07:10:14.892Z,48.90
2022-09-17T07:12:50.092Z,48.70
2022-09-17T07:15:25.125Z,48.80
2022-09-17T07:17:58.607Z,48.90
2022-09-17T07:20:32.151Z,48.80
2022-09-17T07:23:05.661Z,48.90
2022-09-17T07:25:39.212Z,48.80
2022-09-17T07:28:12.756Z,48.90
2022-09-17T07:30:48.205Z,48.80
2022-09-17T07:33:23.623Z,48.90
2022-09-17T07:35:58.252Z,48.90
2022-09-17T07:38:32.280Z,48.80
2022-09-17T07:41:06.659Z,48.80
2022-09-17T07:43:40.162Z,48.80
2022-09-17T07:46:19.210Z,48.90
2022-09-17T07:48:52.761Z,49.00
2022-09-17T07:51:28.458Z,49.20
2022-09-17T07:54:06.353Z,49.20
2022-09-17T07:56:39.848Z,49.20
2022-09-17T07:59:13.442Z,49.10
2022-09-17T08:01:48.649Z,49.10
2022-09-17T08:04:22.488Z,49.10
2022-09-17T08:06:56.165Z,49.10
2022-09-17T08:09:29.764Z,49.10
2022-09-17T08:12:03.582Z,49.10
2022-09-17T08:14:37.380Z,49.00
2022-09-17T08:17:13.179Z,48.90
2022-09-17T08:19:46.800Z,48.80
2022-09-17T08:22:20.415Z,48.70
2022-09-17T08:24:54.115Z,48.70
2022-09-17T08:27:27.702Z,48.80
2022-09-17T08:30:01.630Z,48.70
2022-09-17T08:32:36.832Z,48.70
2022-09-17T08:35:11.842Z,48.80
2022-09-17T08:37:46.942Z,48.50
2022-09-17T08:40:22.662Z,48.60
2022-09-17T08:42:59.323Z,48.60
2022-09-17T08:45:33.599Z,48.40
2022-09-17T08:48:13.324Z,48.70
2022-09-17T08:50:46.955Z,48.60
2022-09-17T08:53:40.667Z,48.40
2022-09-17T08:56:15.194Z,48.50
2022-09-17T08:59:06.515Z,48.60
2022-09-17T09:01:43.672Z,48.60
2022-09-17T09:04:35.030Z,48.60
2022-09-17T09:07:12.670Z,48.60
2022-09-17T09:09:48.946Z,48.60
2022-09-17T09:12:26.883Z,48.50
2022-09-17T09:15:02.569Z,48.60
2022-09-17T09:17:39.814Z,48.60
2022-09-17T09:20:17.094Z,48.80
2022-09-17T09:22:53.310Z,49.10
2022-09-17T09:25:28.731Z,49.00
2022-09-17T09:28:07.064Z,49.30
2022-09-17T09:30:44.652Z,50.20
2022-09-17T09:33:19.398Z,50.40
2022-09-17T09:35:53.006Z,50.50
2022-09-17T09:38:31.229Z,50.70
2022-09-17T09:41:08.406Z,50.90
2022-09-17T09:44:03.250Z,51.00
2022-09-17T09:46:52.527Z,51.30
2022-09-17T09:49:33.921Z,50.70
2022-09-17T09:52:14.577Z,50.70
2022-09-17T09:54:55.472Z,50.80
2022-09-17T09:57:35.329Z,51.30
2022-09-17T10:00:26.042Z,52.00
2022-09-17T10:03:03.173Z,51.20
2022-09-17T10:05:37.219Z,51.10
2022-09-17T10:08:14.360Z,51.10
2022-09-17T10:11:00.127Z,51.00
2022-09-17T10:13:35.781Z,51.00
2022-09-17T10:16:18.037Z,51.30
2022-09-17T10:18:52.116Z,51.80
2022-09-17T10:21:34.695Z,51.60
2022-09-17T10:24:15.545Z,51.50
2022-09-17T10:26:52.320Z,51.50
2022-09-17T10:29:26.021Z,51.60
2022-09-17T10:32:00.100Z,51.50
2022-09-17T10:34:34.137Z,51.50
2022-09-17T10:37:29.311Z,51.70
2022-09-17T10:40:03.380Z,51.80
2022-09-17T10:42:38.321Z,52.00
2022-09-17T10:45:24.349Z,51.90
2022-09-17T10:47:59.668Z,52.10
2022-09-17T10:50:34.573Z,52.00
2022-09-17T10:53:15.391Z,52.00
2022-09-17T10:55:53.594Z,51.80
2022-09-17T10:58:39.242Z,51.70
2022-09-17T11:01:23.214Z,51.40
2022-09-17T11:04:05.909Z,51.30
2022-09-17T11:06:47.026Z,51.10
2022-09-17T11:09:26.340Z,51.00
2022-09-17T11:12:06.112Z,51.50
2022-09-17T11:14:50.897Z,50.90
2022-09-17T11:17:41.310Z,50.90
2022-09-17T11:20:22.535Z,51.00
2022-09-17T11:23:00.782Z,51.10
2022-09-17T11:25:42.243Z,51.30
2022-09-17T11:28:22.994Z,51.70
2022-09-17T11:31:05.933Z,52.30
2022-09-17T11:33:45.966Z,52.50
2022-09-17T11:36:22.436Z,52.60
2022-09-17T11:38:57.267Z,52.60
2022-09-17T11:41:33.043Z,52.60
2022-09-17T11:44:09.585Z,52.50
2022-09-17T11:46:46.664Z,52.60
2022-09-17T11:49:23.736Z,52.60
2022-09-17T11:51:58.425Z,52.40
2022-09-17T11:54:33.886Z,52.40
2022-09-17T11:57:11.523Z,52.50
2022-09-17T11:59:48.132Z,53.10
2022-09-17T12:02:26.537Z,53.30
2022-09-17T12:05:01.994Z,53.40
2022-09-17T12:07:38.907Z,53.50
2022-09-17T12:10:21.947Z,53.00
2022-09-17T12:12:58.208Z,52.90
2022-09-17T12:15:34.379Z,52.60
2022-09-17T12:18:32.923Z,52.20
2022-09-17T12:21:08.398Z,51.70
2022-09-17T12:23:44.096Z,50.50
2022-09-17T12:26:24.325Z,48.70
2022-09-17T12:29:01.911Z,46.50
2022-09-17T12:31:39.281Z,46.60
2022-09-17T12:34:21.408Z,45.50
2022-09-17T12:36:58.630Z,46.70
2022-09-17T12:39:40.700Z,47.30
2022-09-17T12:42:21.690Z,46.80
2022-09-17T12:45:03.831Z,47.00
2022-09-17T12:47:52.850Z,47.50
2022-09-17T12:50:34.699Z,46.80
2022-09-17T12:53:14.972Z,47.00
2022-09-17T12:56:02.738Z,47.30
2022-09-17T12:58:41.765Z,47.90
2022-09-17T13:01:19.732Z,47.80
2022-09-17T13:03:56.133Z,47.70
2022-09-17T13:06:42.222Z,48.00
2022-09-17T13:09:34.000Z,48.10
2022-09-17T13:12:10.354Z,48.10
2022-09-17T13:14:59.149Z,48.20
2022-09-17T13:17:35.422Z,48.30
2022-09-17T13:20:17.368Z,48.30
2022-09-17T13:22:54.449Z,48.10
2022-09-17T13:25:28.112Z,48.10
2022-09-17T13:28:08.848Z,48.10
2022-09-17T13:30:58.431Z,48.20
2022-09-17T13:33:50.440Z,48.20
2022-09-17T13:36:51.276Z,48.50
2022-09-17T13:39:40.779Z,48.30
2022-09-17T13:42:22.190Z,48.30
2022-09-17T13:45:03.939Z,48.40
2022-09-17T13:47:39.239Z,48.50
2022-09-17T13:50:13.987Z,48.40
2022-09-17T13:52:48.627Z,48.40
2022-09-17T13:55:34.330Z,48.50
2022-09-17T13:58:09.195Z,48.60
2022-09-17T14:00:51.093Z,48.50
2022-09-17T14:03:44.657Z,48.50
2022-09-17T14:06:36.930Z,48.50
2022-09-17T14:09:25.235Z,48.60
2022-09-17T14:12:00.203Z,48.40
2022-09-17T14:14:49.761Z,48.40
2022-09-17T14:17:42.120Z,48.50
2022-09-17T14:20:15.920Z,48.40
2022-09-17T14:22:56.064Z,48.50
2022-09-17T14:25:34.071Z,48.40
2022-09-17T14:28:15.031Z,48.40
2022-09-17T14:30:48.965Z,48.50
2022-09-17T14:33:26.438Z,48.50
2022-09-17T14:36:01.954Z,48.60
2022-09-17T14:38:40.071Z,48.60
2022-09-17T14:41:19.291Z,48.70
2022-09-17T14:43:56.715Z,48.70
2022-09-17T14:46:32.411Z,48.70
2022-09-17T14:49:15.283Z,48.80
2022-09-17T14:51:49.213Z,48.70
2022-09-17T14:54:25.020Z,48.80
2022-09-17T14:56:59.874Z,48.60
2022-09-17T14:59:51.020Z,48.70
2022-09-17T15:02:29.196Z,48.80
2022-09-17T15:05:06.195Z,48.70
2022-09-17T15:07:43.036Z,48.90
2022-09-17T15:10:20.175Z,48.80
2022-09-17T15:12:55.300Z,49.20
2022-09-17T15:15:29.138Z,49.30
2022-09-17T15:18:05.542Z,49.30
2022-09-17T15:20:39.338Z,49.30
2022-09-17T15:23:17.185Z,49.50
2022-09-17T15:25:51.961Z,50.10
2022-09-17T15:28:29.698Z,50.60
2022-09-17T15:31:04.198Z,51.40
2022-09-17T15:33:39.359Z,50.90
2022-09-17T15:36:20.228Z,51.20
2022-09-17T15:38:53.913Z,51.30
2022-09-17T15:41:33.936Z,51.50
2022-09-17T15:44:28.602Z,51.40
2022-09-17T15:47:20.314Z,51.70
2022-09-17T15:50:08.440Z,52.10
2022-09-17T15:52:42.006Z,52.10
2022-09-17T15:55:32.133Z,52.00
2022-09-17T15:58:07.024Z,51.50
2022-09-17T16:00:40.811Z,51.30
2022-09-17T16:03:48.856Z,51.30
2022-09-17T16:06:48.941Z,51.10
2022-09-17T16:09:40.064Z,51.40
2022-09-17T16:12:14.874Z,51.60
2022-09-17T16:14:49.759Z,51.50
2022-09-17T16:17:24.993Z,51.00
2022-09-17T16:20:02.489Z,51.00
2022-09-17T16:22:40.358Z,50.70
2022-09-17T16:25:13.860Z,50.70
2022-09-17T16:27:49.499Z,50.60
2022-09-17T16:30:24.064Z,50.60
2022-09-17T16:32:57.987Z,50.40
2022-09-17T16:35:31.463Z,50.50
2022-09-17T16:38:06.469Z,50.60
2022-09-17T16:40:41.886Z,50.70
2022-09-17T16:43:15.549Z,50.50
2022-09-17T16:45:59.172Z,50.60
2022-09-17T16:48:33.051Z,51.00
2022-09-17T16:51:08.386Z,50.90
2022-09-17T16:53:43.448Z,50.70
2022-09-17T16:56:17.594Z,50.80
2022-09-17T16:58:55.038Z,50.90
2022-09-17T17:01:28.722Z,51.10
2022-09-17T17:04:02.551Z,51.10
2022-09-17T17:06:36.201Z,51.40
2022-09-17T17:09:12.397Z,51.40
2022-09-17T17:11:46.074Z,51.40
2022-09-17T17:14:19.716Z,51.60
2022-09-17T17:16:53.262Z,51.50
2022-09-17T17:19:27.117Z,51.50
2022-09-17T17:22:00.718Z,51.40
2022-09-17T17:24:35.744Z,51.30
2022-09-17T17:27:10.175Z,51.40
2022-09-17T17:29:44.347Z,51.50
2022-09-17T17:32:18.031Z,51.50
2022-09-17T17:34:51.900Z,51.30
2022-09-17T17:37:26.225Z,51.20
2022-09-17T17:40:02.005Z,51.20
2022-09-17T17:42:38.255Z,51.20
2022-09-17T17:45:12.233Z,51.10
2022-09-17T17:47:45.699Z,51.10
2022-09-17T17:50:19.430Z,51.20
2022-09-17T17:52:55.116Z,51.30
2022-09-17T17:55:30.120Z,51.10
2022-09-17T17:58:03.674Z,51.10
2022-09-17T18:00:37.192Z,51.70
2022-09-17T18:03:11.319Z,51.20
2022-09-17T18:05:45.236Z,51.20
2022-09-17T18:08:19.283Z,51.00
2022-09-17T18:10:54.942Z,51.20
2022-09-17T18:13:28.639Z,51.40
2022-09-17T18:16:04.893Z,51.20
2022-09-17T18:18:44.173Z,51.10
2022-09-17T18:21:19.385Z,51.00
2022-09-17T18:23:53.301Z,51.50
2022-09-17T18:26:29.309Z,51.30
2022-09-17T18:29:07.776Z,51.10
2022-09-17T18:31:42.679Z,51.10
2022-09-17T18:34:17.962Z,51.10
2022-09-17T18:36:53.712Z,51.00
2022-09-17T18:42:22.538Z,51.10
2022-09-17T18:44:56.215Z,51.00
2022-09-17T18:47:30.153Z,51.00
2022-09-17T18:50:03.857Z,50.80
2022-09-17T18:52:37.696Z,50.80
2022-09-17T18:55:11.481Z,50.80
2022-09-17T18:57:49.949Z,50.80
2022-09-17T19:00:24.717Z,50.60
2022-09-17T19:02:58.546Z,50.60
2022-09-17T19:05:32.723Z,50.50
2022-09-17T19:08:06.950Z,50.90
2022-09-17T19:10:40.671Z,51.00
2022-09-17T19:13:15.836Z,51.10
2022-09-17T19:15:50.036Z,51.20
2022-09-17T19:18:24.219Z,51.60
2022-09-17T19:21:00.426Z,51.60
2022-09-17T19:23:34.614Z,51.30
2022-09-17T19:26:08.840Z,51.60
2022-09-17T19:28:43.981Z,51.70
2022-09-17T19:31:18.683Z,51.60
2022-09-17T19:33:53.232Z,51.40
2022-09-17T19:36:27.261Z,51.30
2022-09-17T19:39:01.460Z,51.20
2022-09-17T19:41:36.646Z,51.20
2022-09-17T19:44:12.011Z,51.10
2022-09-17T19:46:46.775Z,50.90
2022-09-17T19:49:20.842Z,50.80
2022-09-17T19:51:54.472Z,50.70
2022-09-17T19:54:28.144Z,50.60
2022-09-17T19:57:01.827Z,50.50
2022-09-17T19:59:37.099Z,50.40
2022-09-17T20:02:11.164Z,50.30
2022-09-17T20:04:45.087Z,50.10
2022-09-17T20:07:18.675Z,50.10
2022-09-17T20:09:52.557Z,50.00
2022-09-17T20:12:26.228Z,49.90
2022-09-17T20:15:01.237Z,49.70
2022-09-17T20:17:34.956Z,49.60
2022-09-17T20:20:09.065Z,49.60
2022-09-17T20:22:42.919Z,49.40
2022-09-17T20:25:16.576Z,49.40
2022-09-17T20:27:50.276Z,49.30
2022-09-17T20:30:25.341Z,49.20
2022-09-17T20:32:58.941Z,49.10
2022-09-17T20:35:32.567Z,49.10
2022-09-17T20:39:06.759Z,49.00
2022-09-17T20:41:02.219Z,48.80
2022-09-17T20:43:36.155Z,48.90
2022-09-17T20:46:12.143Z,48.80
2022-09-17T20:48:46.249Z,48.70
2022-09-17T20:51:20.831Z,48.60
2022-09-17T20:53:54.651Z,48.60
2022-09-17T20:56:29.308Z,48.50
2022-09-17T20:59:09.497Z,48.40
2022-09-17T21:01:49.798Z,48.40
2022-09-17T21:04:24.339Z,48.30
2022-09-17T21:06:57.987Z,48.20
2022-09-17T21:09:31.649Z,48.20
2022-09-17T21:12:05.652Z,48.20
2022-09-17T21:14:39.534Z,48.10
2022-09-17T21:17:14.472Z,48.10
2022-09-17T21:19:48.041Z,48.10
2022-09-17T21:22:21.598Z,48.10
2022-09-17T21:24:55.104Z,48.10
2022-09-17T21:27:31.572Z,48.10
2022-09-17T21:30:09.580Z,48.00
2022-09-17T21:32:44.759Z,48.10
2022-09-17T21:35:18.341Z,48.00
2022-09-17T21:37:53.150Z,48.10
2022-09-17T21:40:26.874Z,48.40
2022-09-17T21:43:00.504Z,48.50
2022-09-17T21:45:34.050Z,48.60
2022-09-17T21:48:09.007Z,48.60
2022-09-17T21:50:42.522Z,48.80
2022-09-17T21:53:16.047Z,48.80
2022-09-17T21:55:49.542Z,48.90
2022-09-17T21:58:23.041Z,48.90
2022-09-17T22:00:56.544Z,48.90
2022-09-17T22:03:31.571Z,48.80
2022-09-17T22:06:06.558Z,48.80
2022-09-17T22:08:40.123Z,48.80
2022-09-17T22:11:14.873Z,48.70
2022-09-17T22:13:52.959Z,48.70
2022-09-17T22:16:28.251Z,48.70
2022-09-17T22:19:04.999Z,48.60
2022-09-17T22:21:39.287Z,48.50
2022-09-17T22:24:12.861Z,48.40
2022-09-17T22:26:47.206Z,48.30
2022-09-17T22:29:21.710Z,48.30
2022-09-17T22:31:55.409Z,48.20
2022-09-17T22:34:30.945Z,48.20
2022-09-17T22:37:06.328Z,48.30
2022-09-17T22:39:39.984Z,48.20
2022-09-17T22:42:14.675Z,48.20
2022-09-17T22:44:48.238Z,48.30
2022-09-17T22:47:22.042Z,48.40
2022-09-17T22:49:57.062Z,48.50
2022-09-17T22:52:31.215Z,48.50
2022-09-17T22:55:05.135Z,48.50
2022-09-17T22:57:38.766Z,48.60
2022-09-17T23:00:13.541Z,48.60
2022-09-17T23:02:47.240Z,48.70
2022-09-17T23:05:22.362Z,48.80
2022-09-17T23:07:55.981Z,48.80
2022-09-17T23:10:29.572Z,48.80
2022-09-17T23:13:03.296Z,48.90
2022-09-17T23:15:37.429Z,48.90
2022-09-17T23:18:11.143Z,49.30
2022-09-17T23:20:46.415Z,49.10
2022-09-17T23:23:24.445Z,49.10
2022-09-17T23:26:03.420Z,49.20
2022-09-17T23:28:39.111Z,49.10
2022-09-17T23:31:13.495Z,49.10
2022-09-17T23:33:47.552Z,49.10
2022-09-17T23:36:23.704Z,49.20
2022-09-17T23:38:57.750Z,49.20
2022-09-17T23:41:32.527Z,49.10
2022-09-17T23:44:10.719Z,49.10
2022-09-17T23:46:47.635Z,49.20
2022-09-17T23:49:21.434Z,49.20
2022-09-17T23:51:56.345Z,49.10
2022-09-17T23:54:29.888Z,49.10
2022-09-17T23:57:03.547Z,49.20
2022-09-17T23:59:37.041Z,49.20
